Time;durP1;ratioP1;P1;durP2;ratioP2;P2;SDS_P1;SDS_P2;PMS_P1;PMS_P2;Temp;Humidity;BMP_temperature;BMP_pressure;BME280_temperature;BME280_humidity;BME280_pressure;Samples;Min_cycle;Max_cycle;Signal;HPM_P1;HPM_P2
2022/06/23 00:00:33;;;;;;;1.85;1.02;;;;;;;15.97;81.46;99236.41;1704828;81;21137;-66
2022/06/23 00:03:02;;;;;;;0.70;0.28;;;;;;;16.00;81.40;99249.36;1696197;83;21086;-67
2022/06/23 00:05:36;;;;;;;2.40;0.65;;;;;;;16.00;81.07;99251.25;1700659;83;21001;-67
2022/06/23 00:08:09;;;;;;;1.05;0.40;;;;;;;15.88;81.61;99256.72;1703056;81;21047;-68
2022/06/23 00:10:45;;;;;;;1.42;0.33;;;;;;;15.88;81.61;99256.72;1692855;83;21042;-66
2022/06/23 00:13:24;;;;;;;1.20;0.30;;;;;;;15.87;81.71;99274.73;1694676;83;20994;-67
2022/06/23 00:15:53;;;;;;;1.00;0.55;;;;;;;15.83;82.07;99261.52;1694756;83;22829;-66
2022/06/23 00:18:25;;;;;;;6.33;0.40;;;;;;;15.80;82.05;99271.41;1695129;83;21118;-67
2022/06/23 00:21:11;;;;;;;2.72;0.70;;;;;;;15.78;82.41;99268.70;1692144;83;21106;-66
2022/06/23 00:23:42;;;;;;;0.35;0.35;;;;;;;15.76;82.69;99255.00;1680491;83;21045;-67
2022/06/23 00:26:26;;;;;;;1.85;0.57;;;;;;;15.79;82.93;99258.24;1655576;85;21098;-67
2022/06/23 00:29:02;;;;;;;2.35;0.28;;;;;;;15.88;82.67;99269.65;1596985;88;21081;-65
2022/06/23 00:31:39;;;;;;;1.27;0.50;;;;;;;15.88;82.67;99269.65;1655182;85;21054;-67
2022/06/23 00:34:33;;;;;;;1.37;0.35;;;;;;;15.93;82.88;99272.92;1674150;83;21109;-65
2022/06/23 00:37:15;;;;;;;0.45;0.45;;;;;;;15.87;83.07;99276.07;1700297;83;21156;-65
2022/06/23 00:40:01;;;;;;;1.52;0.42;;;;;;;15.83;83.37;99278.17;1694876;83;21010;-65
2022/06/23 00:42:42;;;;;;;2.77;0.40;;;;;;;15.76;83.83;99272.45;1668383;85;21046;-66
2022/06/23 00:45:14;;;;;;;0.78;0.40;;;;;;;15.73;84.11;99266.23;1665774;83;21592;-66
2022/06/23 00:48:08;;;;;;;2.47;0.50;;;;;;;15.73;84.42;99267.57;1685236;84;21093;-65
2022/06/23 00:50:47;;;;;;;0.60;0.50;;;;;;;15.74;84.85;99269.72;1673762;84;21122;-66
2022/06/23 00:53:26;;;;;;;1.70;0.60;;;;;;;15.75;85.05;99267.33;1693447;83;21100;-65
2022/06/23 00:56:30;;;;;;;1.70;0.30;;;;;;;15.79;84.78;99264.42;1684614;83;21578;-67
2022/06/23 00:59:07;;;;;;;0.72;0.72;;;;;;;15.79;84.78;99264.42;1665662;85;21137;-69
2022/06/23 01:02:00;;;;;;;0.40;0.40;;;;;;;15.81;84.26;99260.15;1640599;86;21078;-65
2022/06/23 01:07:41;;;;;;;0.40;0.30;;;;;;;15.82;84.30;99249.13;1825333;77;23071;-67
2022/06/23 01:10:26;;;;;;;4.58;0.85;;;;;;;15.76;84.46;99259.03;1789415;78;21038;-66
2022/06/23 01:13:22;;;;;;;2.20;0.68;;;;;;;15.76;84.58;99253.66;1760273;79;21041;-67
2022/06/23 01:16:13;;;;;;;1.12;0.60;;;;;;;15.75;84.64;99247.18;1724326;82;21068;-66
2022/06/23 01:18:56;;;;;;;1.85;0.72;;;;;;;15.77;84.76;99253.11;1700559;83;21062;-67
2022/06/23 01:21:32;;;;;;;2.83;0.85;;;;;;;15.79;84.95;99244.27;1696280;83;21027;-66
2022/06/23 01:24:10;;;;;;;2.55;0.80;;;;;;;15.82;84.87;99244.29;1708318;82;21517;-67
2022/06/23 01:27:00;;;;;;;1.22;1.12;;;;;;;15.80;85.37;99254.48;1695826;83;21054;-66
2022/06/23 01:29:48;;;;;;;1.27;1.27;;;;;;;15.74;86.71;99252.26;1698568;83;21092;-66
2022/06/23 01:32:43;;;;;;;1.25;0.98;;;;;;;15.64;87.84;99257.48;1695136;83;21172;-66
2022/06/23 01:35:36;;;;;;;1.85;1.40;;;;;;;15.50;89.52;99246.25;1675906;82;21006;-66
2022/06/23 01:38:26;;;;;;;1.50;1.32;;;;;;;15.38;90.95;99247.70;1668026;84;21145;-66
2022/06/23 01:41:07;;;;;;;1.57;1.47;;;;;;;15.25;92.00;99252.88;1634796;85;21109;-66
2022/06/23 01:43:45;;;;;;;1.65;1.55;;;;;;;15.13;93.48;99248.95;1693558;83;21041;-67
2022/06/23 01:46:22;;;;;;;2.30;2.15;;;;;;;15.08;93.81;99250.74;1667587;84;21590;-65
2022/06/23 01:49:00;;;;;;;2.15;2.05;;;;;;;14.99;94.49;99243.11;1688031;83;22270;-66
2022/06/23 01:51:41;;;;;;;2.22;2.12;;;;;;;14.99;94.20;99253.01;1671120;84;21060;-66
2022/06/23 01:54:18;;;;;;;2.60;2.40;;;;;;;15.02;94.81;99249.05;1694692;83;20983;-66
2022/06/23 01:57:02;;;;;;;2.50;2.27;;;;;;;15.04;94.61;99253.64;1669079;84;21092;-64
2022/06/23 02:00:10;;;;;;;3.05;2.80;;;;;;;15.04;94.57;99255.78;1692841;83;21062;-65
2022/06/23 02:02:46;;;;;;;2.30;2.15;;;;;;;15.05;94.63;99253.40;1670870;84;21097;-65
2022/06/23 02:05:30;;;;;;;2.10;2.05;;;;;;;15.08;95.08;99261.48;1694822;83;21494;-65
2022/06/23 02:08:06;;;;;;;2.45;2.15;;;;;;;15.10;95.68;99258.83;1672221;84;21073;-66
2022/06/23 02:11:09;;;;;;;8.65;2.10;;;;;;;15.14;95.38;99265.36;1678175;83;21561;-65
2022/06/23 02:14:06;;;;;;;2.80;2.08;;;;;;;15.17;95.62;99263.50;1691244;83;21076;-66
2022/06/23 02:16:47;;;;;;;4.08;2.33;;;;;;;15.23;95.63;99264.39;1670348;84;21117;-65
2022/06/23 02:19:37;;;;;;;3.40;2.40;;;;;;;15.28;95.00;99267.16;1693811;83;21026;-66
2022/06/23 02:22:23;;;;;;;2.85;2.60;;;;;;;15.33;94.76;99268.59;1669640;83;21045;-65
2022/06/23 02:24:57;;;;;;;3.05;2.22;;;;;;;15.36;94.27;99269.42;1694444;83;21125;-65
2022/06/23 02:27:40;;;;;;;3.58;2.08;;;;;;;15.42;94.35;99272.20;1668584;84;21017;-67
2022/06/23 02:30:34;;;;;;;2.02;1.92;;;;;;;15.45;94.01;99268.49;1685804;83;21053;-66
2022/06/23 02:33:21;;;;;;;2.30;2.20;;;;;;;15.52;93.56;99267.80;1669413;84;21108;-66
2022/06/23 02:35:55;;;;;;;2.30;2.08;;;;;;;15.58;92.74;99271.37;1694748;83;21073;-68
2022/06/23 02:38:34;;;;;;;3.12;2.92;;;;;;;15.63;92.09;99274.10;1670551;84;21105;-66
2022/06/23 02:41:36;;;;;;;2.37;2.20;;;;;;;15.67;90.90;99284.66;1692863;83;20998;-66
2022/06/23 02:44:39;;;;;;;2.98;2.67;;;;;;;15.71;90.10;99281.75;1663794;83;21544;-66
2022/06/23 02:47:20;;;;;;;2.77;2.05;;;;;;;15.38;89.72;99220.32;1694977;83;21485;-66
2022/06/23 02:49:55;;;;;;;2.00;1.90;;;;;;;15.80;89.24;99277.31;1694248;83;21560;-66
2022/06/23 02:52:45;;;;;;;2.33;2.20;;;;;;;15.85;88.54;99275.51;1633245;84;21060;-66
2022/06/23 02:55:29;;;;;;;2.87;2.20;;;;;;;15.90;87.85;99282.84;1690165;83;21045;-65
2022/06/23 02:58:03;;;;;;;2.37;2.27;;;;;;;15.96;87.05;99288.55;1660220;84;21094;-67
2022/06/23 03:00:47;;;;;;;5.28;2.35;;;;;;;16.02;85.92;99281.37;1694295;82;21034;-66
2022/06/23 03:03:30;;;;;;;2.20;2.10;;;;;;;16.14;85.00;99278.01;1697475;83;21569;-66
2022/06/23 03:06:14;;;;;;;4.37;2.33;;;;;;;16.14;85.00;99278.01;1695595;83;21715;-66
2022/06/23 03:08:52;;;;;;;2.47;2.30;;;;;;;16.18;84.06;99268.41;1694020;83;21545;-65
2022/06/23 03:11:52;;;;;;;3.33;2.42;;;;;;;16.21;84.34;99268.42;1696040;82;21754;-67
2022/06/23 03:14:27;;;;;;;2.05;1.95;;;;;;;16.20;83.60;99268.13;1676316;84;21087;-67
2022/06/23 03:17:05;;;;;;;3.45;2.08;;;;;;;16.18;82.92;99274.29;1638908;86;21573;-66
2022/06/23 03:19:39;;;;;;;3.58;2.20;;;;;;;16.22;82.65;99279.44;1657109;84;21053;-66
2022/06/23 03:22:43;;;;;;;2.35;2.00;;;;;;;16.26;82.62;99284.62;1638087;86;21563;-65
2022/06/23 03:25:29;;;;;;;4.03;2.50;;;;;;;16.30;82.40;99277.13;1642651;86;21101;-64
2022/06/23 03:28:16;;;;;;;2.00;1.90;;;;;;;16.35;81.88;99281.77;1651674;86;21104;-65
2022/06/23 03:30:50;;;;;;;2.75;2.10;;;;;;;16.35;81.32;99287.95;1643558;86;21136;-66
2022/06/23 03:33:34;;;;;;;2.50;2.35;;;;;;;16.33;81.08;99278.48;1644975;83;21089;-66
2022/06/23 03:36:11;;;;;;;3.08;2.60;;;;;;;16.34;80.92;99280.13;1696579;84;21017;-66
2022/06/23 03:41:44;;;;;;;3.05;2.20;;;;;;;16.37;80.62;99295.77;1625176;87;21589;-65
2022/06/23 03:44:22;;;;;;;3.15;2.35;;;;;;;16.40;80.46;99293.91;1682819;84;22407;-66
2022/06/23 03:46:57;;;;;;;3.75;2.37;;;;;;;16.42;80.19;99293.12;1683238;84;21240;-67
2022/06/23 03:49:47;;;;;;;3.22;2.10;;;;;;;16.47;79.92;99299.91;1652880;85;21353;-66
2022/06/23 03:52:21;;;;;;;1.90;1.72;;;;;;;16.52;79.73;99285.17;1668563;84;21137;-68
2022/06/23 03:54:52;;;;;;;1.60;1.50;;;;;;;16.55;79.40;99298.64;1675493;84;21156;-64
2022/06/23 03:57:31;;;;;;;2.70;2.20;;;;;;;16.55;79.40;99298.64;1648280;85;21117;-67
2022/06/23 04:00:27;;;;;;;3.83;2.20;;;;;;;16.61;79.05;99303.55;1645803;86;21122;-65
2022/06/23 04:03:14;;;;;;;2.72;1.90;;;;;;;16.68;78.62;99314.92;1655901;86;21460;-65
2022/06/23 04:05:58;;;;;;;2.05;1.80;;;;;;;16.73;78.49;99321.70;1662651;86;21093;-66
2022/06/23 04:08:28;;;;;;;3.50;2.70;;;;;;;16.75;78.29;99318.23;1644863;86;21094;-67
2022/06/23 04:11:42;;;;;;;3.87;1.67;;;;;;;16.80;78.05;99323.67;1647648;86;21073;-66
2022/06/23 04:13:31;;;;;;;2.25;1.75;;;;;;;16.85;77.91;99322.38;1650396;86;21141;-66
2022/06/23 04:16:08;;;;;;;5.05;2.00;;;;;;;16.91;77.84;99332.16;1649711;86;21584;-68
2022/06/23 04:18:42;;;;;;;2.95;2.33;;;;;;;16.98;77.78;99332.47;1647743;86;21010;-66
2022/06/23 04:21:19;;;;;;;2.98;1.65;;;;;;;17.02;77.15;99331.69;1648632;86;21050;-66
2022/06/23 04:23:50;;;;;;;1.52;1.42;;;;;;;17.03;76.86;99343.30;1663987;84;21064;-65
2022/06/23 04:26:33;;;;;;;2.25;1.17;;;;;;;17.01;76.86;99340.86;1684017;84;21555;-67
2022/06/23 04:29:20;;;;;;;2.30;2.12;;;;;;;16.96;76.96;99331.92;1672787;84;21065;-67
2022/06/23 04:31:50;;;;;;;;;;;;;;;16.96;76.78;99345.37;1673651;84;21060;-69
2022/06/23 04:34:21;;;;;;;1.77;1.67;;;;;;;16.96;76.85;99342.14;1680101;83;20153;-66
2022/06/23 04:36:48;;;;;;;2.05;1.37;;;;;;;16.91;77.21;99339.39;1672329;84;21085;-65
2022/06/23 04:39:42;;;;;;;1.37;1.15;;;;;;;16.92;77.14;99346.41;1649987;85;21615;-66
2022/06/23 04:42:23;;;;;;;3.80;1.95;;;;;;;16.91;76.84;99324.59;1595310;87;21231;-69
2022/06/23 04:44:54;;;;;;;3.47;1.40;;;;;;;16.57;77.12;99290.33;1667162;83;21108;-69
2022/06/23 04:47:29;;;;;;;2.35;1.55;;;;;;;16.86;77.19;99338.83;1674787;83;20990;-68
2022/06/23 04:50:10;;;;;;;3.37;1.92;;;;;;;16.87;77.37;99340.43;1675411;83;21129;-66
2022/06/23 04:52:45;;;;;;;3.90;1.35;;;;;;;16.94;77.08;99333.52;1673463;84;21141;-67
2022/06/23 04:55:28;;;;;;;6.78;1.70;;;;;;;17.25;76.60;99345.37;1654235;84;21111;-69
2022/06/23 04:58:03;;;;;;;2.47;2.05;;;;;;;17.53;74.92;99347.46;1647950;85;21064;-68
2022/06/23 05:00:44;;;;;;;6.00;1.57;;;;;;;17.71;74.38;99352.98;1659791;84;21052;-65
2022/06/23 05:03:28;;;;;;;3.00;0.95;;;;;;;17.86;73.32;99356.35;1674849;83;21160;-69
2022/06/23 05:06:27;;;;;;;2.05;1.37;;;;;;;17.90;72.95;99359.60;1675910;84;21074;-65
2022/06/23 05:08:58;;;;;;;5.28;1.80;;;;;;;17.84;72.86;99361.16;1681610;84;21061;-67
2022/06/23 05:11:44;;;;;;;2.00;1.30;;;;;;;17.68;73.01;99354.30;1676384;83;21557;-67
2022/06/23 05:14:37;;;;;;;1.67;1.07;;;;;;;17.57;73.59;99357.19;1678234;83;21125;-69
2022/06/23 05:17:12;;;;;;;2.12;1.50;;;;;;;17.43;74.49;99367.06;1675354;83;21188;-65
2022/06/23 05:19:40;;;;;;;4.35;1.55;;;;;;;17.43;74.36;99368.41;1681158;84;21169;-68
2022/06/23 05:22:12;;;;;;;6.47;1.55;;;;;;;17.45;74.50;99367.61;1678410;81;21045;-66
2022/06/23 05:24:42;;;;;;;1.20;1.20;;;;;;;17.63;73.79;99363.72;1675245;84;21030;-68
2022/06/23 05:27:25;;;;;;;3.27;1.65;;;;;;;17.96;73.14;99360.45;1675021;83;21122;-69
2022/06/23 05:30:26;;;;;;;1.32;1.20;;;;;;;18.39;71.55;99354.45;1675774;84;21053;-72
2022/06/23 05:33:04;;;;;;;2.70;1.20;;;;;;;18.96;69.48;99366.80;1676310;84;21026;-77
2022/06/23 05:35:54;;;;;;;4.65;1.57;;;;;;;19.47;66.56;99368.17;1667495;84;21568;-68
2022/06/23 05:38:32;;;;;;;2.05;1.92;;;;;;;19.80;65.51;99353.86;1667043;84;21160;-70
2022/06/23 05:41:09;;;;;;;3.00;0.93;;;;;;;20.13;64.21;99360.52;1674750;84;21030;-69
2022/06/23 05:43:40;;;;;;;4.70;1.32;;;;;;;20.19;63.18;99362.15;1665137;84;21187;-66
2022/06/23 05:46:09;;;;;;;2.85;1.17;;;;;;;20.14;63.58;99366.22;1671750;84;21069;-67
2022/06/23 05:48:43;;;;;;;1.27;1.02;;;;;;;19.97;63.74;99370.59;1671282;84;21125;-75
2022/06/23 05:51:14;;;;;;;1.22;0.98;;;;;;;19.77;64.25;99379.53;1668330;83;21134;-73
2022/06/23 05:53:47;;;;;;;3.35;2.52;;;;;;;19.63;65.28;99381.16;1685592;84;21060;-77
2022/06/23 05:56:28;;;;;;;1.75;1.65;;;;;;;19.16;65.55;99324.16;1673273;84;21604;-74
2022/06/23 05:59:00;;;;;;;2.17;1.25;;;;;;;19.21;66.08;99373.59;1653816;85;21818;-74
2022/06/23 06:01:47;;;;;;;2.40;1.47;;;;;;;19.03;66.65;99391.66;1662078;84;21655;-71
2022/06/23 06:04:21;;;;;;;1.95;1.72;;;;;;;18.91;67.49;99388.38;1672115;84;21044;-72
2022/06/23 06:06:48;;;;;;;5.75;2.00;;;;;;;18.73;67.86;99403.96;1672652;84;21080;-70
2022/06/23 06:09:40;;;;;;;3.45;1.85;;;;;;;18.68;68.25;99395.32;1671755;84;21088;-76
2022/06/23 06:12:20;;;;;;;1.85;1.15;;;;;;;18.65;68.68;99401.23;1666098;84;21135;-81
2022/06/23 06:14:59;;;;;;;4.85;1.65;;;;;;;18.64;68.75;99394.75;1694138;84;21060;-76
2022/06/23 06:17:29;;;;;;;1.80;1.42;;;;;;;18.66;68.66;99387.20;1691420;84;21181;-71
2022/06/23 06:20:01;;;;;;;7.92;1.37;;;;;;;18.70;68.69;99388.83;1683422;84;21159;-69
2022/06/23 06:23:05;;;;;;;1.52;1.17;;;;;;;18.70;68.52;99381.54;1677946;84;21119;-70
2022/06/23 06:25:38;;;;;;;2.60;2.08;;;;;;;18.72;68.71;99386.67;1686201;84;21171;-69
2022/06/23 06:28:21;;;;;;;1.57;1.47;;;;;;;18.81;68.25;99382.42;1687529;83;21504;-71
2022/06/23 06:31:11;;;;;;;5.35;1.47;;;;;;;18.90;68.17;99386.77;1689307;84;21146;-70
2022/06/23 06:34:00;;;;;;;2.10;1.22;;;;;;;18.93;67.78;99397.85;1689943;83;21002;-68
2022/06/23 06:36:37;;;;;;;5.20;1.05;;;;;;;18.93;67.94;99399.72;1678298;85;21136;-70
2022/06/23 06:39:15;;;;;;;3.30;1.80;;;;;;;18.94;68.44;99403.51;1688417;85;21213;-67
2022/06/23 06:41:49;;;;;;;2.15;1.40;;;;;;;18.94;68.19;99404.86;1678667;84;21086;-70
2022/06/23 06:44:18;;;;;;;2.25;1.22;;;;;;;18.92;68.11;99402.97;1690105;83;21632;-70
2022/06/23 06:46:45;;;;;;;0.88;0.88;;;;;;;18.97;68.09;99417.03;1710660;82;21031;-71
2022/06/23 06:49:18;;;;;;;3.67;1.35;;;;;;;19.05;67.94;99421.91;1714173;82;21046;-69
2022/06/23 06:51:47;;;;;;;3.42;1.35;;;;;;;19.05;68.23;99428.11;1704801;82;21196;-70
2022/06/23 06:54:39;;;;;;;2.08;1.27;;;;;;;18.99;68.17;99433.78;1714189;82;21029;-70
2022/06/23 06:57:13;;;;;;;1.55;1.47;;;;;;;18.94;68.64;99431.06;1712843;82;21062;-72
2022/06/23 07:00:00;;;;;;;2.80;1.90;;;;;;;18.81;69.16;99443.96;1716206;82;21070;-69
2022/06/23 07:02:41;;;;;;;2.85;1.30;;;;;;;18.81;69.20;99435.86;1672444;84;21680;-69
2022/06/23 07:05:37;;;;;;;2.35;1.00;;;;;;;18.79;69.19;99440.69;1672115;84;21034;-69
2022/06/23 07:08:17;;;;;;;2.75;1.40;;;;;;;18.83;69.57;99445.05;1676565;84;21135;-70
2022/06/23 07:11:12;;;;;;;1.12;1.12;;;;;;;18.79;69.11;99444.73;1657952;84;21094;-70
2022/06/23 07:13:59;;;;;;;2.58;1.27;;;;;;;18.81;69.23;99447.20;1673270;84;21580;-71
2022/06/23 07:16:35;;;;;;;;;;;;;;;18.85;69.11;99442.90;1680716;84;21022;-69
2022/06/23 07:19:32;;;;;;;4.05;1.67;;;;;;;18.91;68.88;99445.91;1664658;84;20145;-69
2022/06/23 07:22:20;;;;;;;1.90;1.37;;;;;;;18.98;68.87;99455.90;1666340;84;21080;-70
2022/06/23 07:24:52;;;;;;;;;;;;;;;19.15;67.80;99451.63;1668269;84;21702;-70
2022/06/23 07:27:42;;;;;;;3.22;1.62;;;;;;;19.31;67.06;99453.00;1664512;84;20448;-70
2022/06/23 07:30:28;;;;;;;1.75;1.72;;;;;;;19.38;66.96;99452.21;1671955;84;21054;-70
2022/06/23 07:33:02;;;;;;;2.60;1.30;;;;;;;19.47;66.58;99461.41;1673402;84;21066;-69
2022/06/23 07:36:07;;;;;;;1.98;1.67;;;;;;;19.61;66.27;99467.13;1669863;84;21074;-69
2022/06/23 07:38:42;;;;;;;3.35;1.62;;;;;;;19.74;65.37;99463.91;1642656;86;21093;-69
2022/06/23 07:41:20;;;;;;;1.82;1.62;;;;;;;19.71;65.82;99469.02;1673367;84;21058;-72
2022/06/23 07:43:58;;;;;;;2.02;1.20;;;;;;;19.59;65.92;99474.14;1668772;84;21669;-70
2022/06/23 07:46:25;;;;;;;2.22;1.20;;;;;;;19.60;65.65;99476.30;1672698;84;21117;-72
2022/06/23 07:48:51;;;;;;;2.20;1.50;;;;;;;19.61;65.27;99478.73;1672649;84;21081;-72
2022/06/23 07:51:18;;;;;;;1.55;1.45;;;;;;;19.68;65.10;99484.41;1667583;84;21157;-72
2022/06/23 07:53:49;;;;;;;3.75;1.00;;;;;;;19.75;65.27;99467.42;1668204;84;21042;-72
2022/06/23 07:56:23;;;;;;;1.65;1.25;;;;;;;19.85;64.68;99484.98;1692523;82;21011;-70
2022/06/23 07:58:56;;;;;;;5.95;1.22;;;;;;;19.92;64.57;99489.58;1702679;82;21045;-71
2022/06/23 08:01:31;;;;;;;2.70;1.40;;;;;;;19.92;64.33;99493.64;1709715;82;21090;-72
2022/06/23 08:04:26;;;;;;;2.17;1.30;;;;;;;19.98;64.23;99495.80;1714550;82;21112;-73
2022/06/23 08:06:55;;;;;;;0.90;0.70;;;;;;;20.08;63.78;99493.62;1698541;82;21066;-72
2022/06/23 08:09:32;;;;;;;1.50;1.40;;;;;;;20.18;63.11;99490.93;1703834;82;21026;-73
2022/06/23 08:16:49;;;;;;;1.30;1.10;;;;;;;20.31;62.55;99505.80;1711315;82;21101;-72
2022/06/23 08:17:24;;;;;;;2.45;0.82;;;;;;;20.35;62.74;99509.03;1704885;82;21045;-74
2022/06/23 08:20:00;;;;;;;2.75;1.20;;;;;;;20.38;62.21;99511.72;1714353;82;21605;-69
2022/06/23 08:22:34;;;;;;;3.30;1.20;;;;;;;20.41;61.85;99507.92;1714139;80;21065;-70
2022/06/23 08:25:04;;;;;;;1.37;0.88;;;;;;;20.47;62.12;99516.84;1714190;82;21210;-70
2022/06/23 08:27:34;;;;;;;1.87;1.05;;;;;;;20.52;62.04;99515.48;1707305;82;21074;-72
2022/06/23 08:30:09;;;;;;;6.22;1.72;;;;;;;20.56;61.17;99517.91;1708155;82;21270;-71
2022/06/23 08:32:44;;;;;;;1.23;0.83;;;;;;;20.52;60.51;99525.52;1699410;82;21105;-71
2022/06/23 08:35:37;;;;;;;1.70;0.80;;;;;;;20.52;59.93;99523.61;1705071;80;21384;-70
2022/06/23 08:38:18;;;;;;;3.37;0.45;;;;;;;20.56;59.32;99525.23;1711441;82;21129;-70
2022/06/23 08:41:05;;;;;;;1.20;0.70;;;;;;;20.63;58.60;99532.56;1698940;82;21188;-69
2022/06/23 08:43:57;;;;;;;2.33;0.60;;;;;;;20.62;57.80;99505.20;1694718;82;21204;-70
2022/06/23 08:46:59;;;;;;;1.05;0.78;;;;;;;20.86;57.30;99529.78;1703845;82;21667;-69
2022/06/23 08:49:56;;;;;;;3.27;0.78;;;;;;;21.00;56.93;99522.70;1704884;82;21034;-68
2022/06/23 08:52:45;;;;;;;3.70;0.70;;;;;;;21.13;56.05;99531.30;1713081;82;21486;-69
2022/06/23 08:55:29;;;;;;;1.25;0.60;;;;;;;21.24;56.00;99530.71;1711843;81;21371;-73
2022/06/23 08:58:09;;;;;;;1.47;0.78;;;;;;;21.35;54.94;99541.77;1712895;82;21021;-72
2022/06/23 09:01:09;;;;;;;1.80;0.62;;;;;;;21.41;55.04;99545.26;1700978;82;21613;-72
2022/06/23 09:03:44;;;;;;;1.65;0.88;;;;;;;21.34;55.91;99551.80;1666137;84;21032;-73
2022/06/23 09:06:34;;;;;;;0.78;0.40;;;;;;;21.25;56.38;99553.47;1646407;84;21138;-72
2022/06/23 09:09:30;;;;;;;2.42;1.00;;;;;;;21.19;56.78;99558.63;1669310;84;21074;-72
2022/06/23 09:12:27;;;;;;;2.95;0.80;;;;;;;21.21;56.57;99555.12;1679903;83;21061;-72
2022/06/23 09:15:47;;;;;;;2.00;0.78;;;;;;;21.27;56.67;99557.27;1718843;82;21201;-71
2022/06/23 09:18:28;;;;;;;3.05;0.60;;;;;;;21.30;56.54;99550.72;1719172;82;21085;-71
2022/06/23 09:21:43;;;;;;;0.78;0.50;;;;;;;21.44;55.92;99565.05;1707242;82;21097;-70
2022/06/23 09:24:34;;;;;;;1.37;0.62;;;;;;;21.50;54.77;99561.23;1715956;82;21085;-72
2022/06/23 09:27:30;;;;;;;1.15;0.85;;;;;;;21.49;54.59;99564.50;1715367;82;21065;-72
2022/06/23 09:30:29;;;;;;;1.90;0.70;;;;;;;21.41;55.31;99564.23;1715638;82;21045;-71
2022/06/23 09:33:15;;;;;;;0.80;0.55;;;;;;;21.33;55.24;99573.77;1714213;82;21169;-72
2022/06/23 09:36:19;;;;;;;1.50;0.70;;;;;;;21.22;55.16;99577.05;1704853;82;21538;-70
2022/06/23 09:39:07;;;;;;;1.75;0.53;;;;;;;21.19;55.27;99577.59;1707052;82;21003;-72
2022/06/23 09:41:55;;;;;;;2.37;0.95;;;;;;;21.17;55.42;99579.25;1716347;82;21133;-72
2022/06/23 09:44:59;;;;;;;3.80;0.98;;;;;;;21.14;55.53;99577.09;1712695;82;21465;-71
2022/06/23 09:47:53;;;;;;;3.47;0.70;;;;;;;21.12;55.33;99598.78;1712186;82;21089;-71
2022/06/23 09:51:02;;;;;;;2.87;0.78;;;;;;;21.06;55.86;99597.98;1715173;82;21115;-72
2022/06/23 09:53:58;;;;;;;2.40;0.50;;;;;;;20.97;56.49;99600.99;1710113;82;21070;-71
2022/06/23 09:56:49;;;;;;;4.78;1.10;;;;;;;20.90;56.66;99604.53;1687228;83;21065;-72
2022/06/23 09:59:46;;;;;;;3.52;0.40;;;;;;;20.89;55.48;99625.39;1656760;83;21565;-71
2022/06/23 10:02:41;;;;;;;1.40;0.37;;;;;;;20.92;54.76;99607.77;1632237;85;21761;-70
2022/06/23 10:05:39;;;;;;;2.30;0.53;;;;;;;20.96;54.76;99638.64;1642132;85;21097;-72
2022/06/23 10:08:35;;;;;;;2.85;0.40;;;;;;;21.03;54.81;99630.23;1669797;85;21531;-73
2022/06/23 10:11:28;;;;;;;5.22;0.33;;;;;;;21.05;54.72;99634.28;1685468;83;21092;-73
2022/06/23 10:14:04;;;;;;;1.67;0.40;;;;;;;21.06;54.95;99631.86;1662579;84;21099;-73
2022/06/23 10:16:59;;;;;;;3.10;0.33;;;;;;;21.11;55.21;99635.89;1659055;85;21151;-73
2022/06/23 10:19:43;;;;;;;3.35;0.60;;;;;;;21.14;55.27;99635.34;1699925;84;21031;-73
2022/06/23 10:22:43;;;;;;;1.17;0.62;;;;;;;21.16;55.20;99626.39;1703679;83;21106;-73
2022/06/23 10:25:20;;;;;;;2.37;0.50;;;;;;;21.14;55.36;99639.41;1704295;83;21078;-73
2022/06/23 10:28:13;;;;;;;0.98;0.47;;;;;;;21.05;55.70;99636.99;1694252;83;21121;-73
2022/06/23 10:30:57;;;;;;;2.37;0.40;;;;;;;20.96;56.16;99636.77;1698418;83;21062;-74
2022/06/23 10:34:04;;;;;;;2.20;1.02;;;;;;;20.91;56.57;99651.66;1692332;81;21161;-73
2022/06/23 10:37:00;;;;;;;3.15;0.60;;;;;;;20.90;56.59;99654.64;1700026;83;21542;-74
2022/06/23 10:40:01;;;;;;;0.88;0.40;;;;;;;20.86;56.24;99645.44;1676110;84;21168;-74
2022/06/23 10:42:55;;;;;;;1.17;0.90;;;;;;;20.75;55.84;99664.39;1697034;81;21783;-72
2022/06/23 10:45:38;;;;;;;2.90;0.55;;;;;;;20.67;56.32;99672.27;1743588;81;21101;-74
2022/06/23 10:48:50;;;;;;;4.65;0.40;;;;;;;20.60;56.28;99663.86;1727775;81;21121;-73
2022/06/23 10:51:34;;;;;;;0.50;0.35;;;;;;;20.61;56.51;99660.63;1743219;81;21132;-72
2022/06/23 10:54:28;;;;;;;0.78;0.30;;;;;;;20.61;55.91;99681.73;1699358;82;21054;-71
2022/06/23 10:57:14;;;;;;;1.37;0.60;;;;;;;20.57;55.86;99683.89;1733662;81;21070;-71
2022/06/23 11:00:18;;;;;;;0.75;0.37;;;;;;;20.51;55.93;99666.83;1743578;81;21070;-72
2022/06/23 11:02:58;;;;;;;0.50;0.40;;;;;;;20.51;56.20;99670.06;1718619;82;21572;-72
2022/06/23 11:06:00;;;;;;;1.10;0.50;;;;;;;20.50;56.12;99668.45;1742795;81;21128;-71
2022/06/23 11:08:34;;;;;;;2.52;0.40;;;;;;;20.47;56.64;99691.98;1736515;81;21125;-71
2022/06/23 11:11:38;;;;;;;10.65;0.90;;;;;;;20.38;57.42;99699.81;1731550;81;21097;-72
2022/06/23 11:14:47;;;;;;;1.05;0.45;;;;;;;20.29;57.95;99698.20;1738513;81;21169;-74
2022/06/23 11:17:40;;;;;;;2.33;0.72;;;;;;;20.16;58.40;99706.29;1735459;81;21584;-72
2022/06/23 11:20:40;;;;;;;4.30;1.00;;;;;;;20.07;58.94;99698.97;1703328;81;21050;-72
2022/06/23 11:23:18;;;;;;;6.12;0.80;;;;;;;20.03;59.60;99703.55;1737918;81;21604;-70
2022/06/23 11:26:11;;;;;;;1.37;0.65;;;;;;;20.03;59.39;99696.78;1745550;81;21118;-72
2022/06/23 11:28:48;;;;;;;1.42;0.68;;;;;;;20.07;59.06;99699.77;1660726;82;21119;-73
2022/06/23 11:31:58;;;;;;;3.22;1.00;;;;;;;20.12;58.72;99706.55;1740805;81;21625;-73
2022/06/23 11:34:59;;;;;;;1.62;0.47;;;;;;;20.17;58.88;99709.80;1730087;81;21185;-72
2022/06/23 11:37:44;;;;;;;2.17;0.80;;;;;;;20.20;58.08;99699.80;1732863;81;21109;-72
2022/06/23 11:40:22;;;;;;;2.17;0.70;;;;;;;20.26;57.86;99710.91;1737701;81;21049;-70
2022/06/23 11:43:18;;;;;;;1.02;0.57;;;;;;;20.35;57.21;99712.00;1723817;81;21841;-70
2022/06/23 11:46:02;;;;;;;1.52;0.47;;;;;;;20.41;56.83;99704.16;1740809;81;21577;-72
2022/06/23 11:49:15;;;;;;;0.50;0.42;;;;;;;20.50;56.20;99710.41;1742699;81;21496;-74
2022/06/23 11:52:03;;;;;;;3.65;0.60;;;;;;;20.59;55.96;99716.92;1742515;81;21160;-74
2022/06/23 11:54:49;;;;;;;;;;;;;;;20.69;55.10;99716.94;1745927;81;21553;-74
2022/06/23 11:57:55;;;;;;;2.25;0.50;;;;;;;20.78;54.75;99715.32;1741079;81;20202;-72
2022/06/23 12:00:40;;;;;;;1.10;0.50;;;;;;;20.81;54.86;99718.02;1734138;81;20991;-73
2022/06/23 12:03:28;;;;;;;0.72;0.40;;;;;;;20.88;54.42;99722.62;1734037;81;21170;-73
2022/06/23 12:06:20;;;;;;;2.15;0.40;;;;;;;20.96;53.54;99721.27;1729259;81;21138;-73
2022/06/23 12:09:00;;;;;;;4.37;0.35;;;;;;;21.03;53.02;99726.42;1743898;81;21588;-74
2022/06/23 12:11:30;;;;;;;2.25;0.30;;;;;;;21.08;51.91;99727.22;1743354;81;21043;-73
2022/06/23 12:14:00;;;;;;;1.87;0.33;;;;;;;21.15;51.79;99737.77;1740148;81;21089;-72
2022/06/23 12:16:26;;;;;;;1.02;0.40;;;;;;;21.20;50.99;99737.77;1739497;81;21014;-72
2022/06/23 12:18:59;;;;;;;1.20;0.30;;;;;;;21.25;51.02;99736.41;1741510;81;21065;-72
2022/06/23 12:21:46;;;;;;;1.77;0.33;;;;;;;21.27;51.18;99734.79;1739223;81;21061;-72
2022/06/23 12:24:33;;;;;;;2.98;0.40;;;;;;;21.31;51.18;99742.64;1734401;80;21006;-72
2022/06/23 12:27:38;;;;;;;0.50;0.20;;;;;;;21.37;51.23;99738.27;1742919;81;21597;-72
2022/06/23 12:30:15;;;;;;;0.20;0.10;;;;;;;21.42;51.06;99729.84;1726991;81;21065;-72
2022/06/23 12:32:57;;;;;;;3.85;0.60;;;;;;;21.48;50.86;99732.31;1742518;81;21164;-72
2022/06/23 12:35:38;;;;;;;2.50;0.30;;;;;;;21.57;50.62;99738.00;1726377;81;21066;-73
2022/06/23 12:38:14;;;;;;;2.75;0.60;;;;;;;21.67;50.49;99752.06;1714360;82;21116;-72
2022/06/23 12:40:58;;;;;;;1.55;0.30;;;;;;;21.73;50.45;99750.40;1736656;81;21109;-72
2022/06/23 12:43:50;;;;;;;0.65;0.40;;;;;;;21.68;50.63;99745.02;1741241;81;21086;-70
2022/06/23 12:46:47;;;;;;;2.62;0.47;;;;;;;21.66;51.25;99761.27;1685685;81;21113;-72
2022/06/23 12:49:34;;;;;;;0.80;0.53;;;;;;;21.64;51.25;99748.53;1711436;81;21093;-71
2022/06/23 12:52:29;;;;;;;0.95;0.40;;;;;;;21.66;51.46;99751.78;1734928;81;21109;-73
2022/06/23 12:55:13;;;;;;;3.55;0.50;;;;;;;21.68;51.34;99753.15;1701586;81;21101;-71
2022/06/23 12:58:20;;;;;;;4.58;1.25;;;;;;;21.66;51.03;99756.69;1697759;82;21042;-72
2022/06/23 13:01:09;;;;;;;0.85;0.62;;;;;;;21.65;51.42;99763.73;1739829;81;21081;-73